イルクーツク の空港の天気 - METARとTAF

イルクーツク国際空港 ( UIII / IKT ) - ロシア イルクーツク
飛行場実況気象(Metar)
観測時間07/23 02:00 IRKT (07/22 18:00 UTC)
風向・風速東北東 1m/s
視程2600m
天気現象煙 もや
なし
気温13℃
湿度100%
気圧1008hPa
METARUIII 221800Z 07001MPS 2600 FU BR NSC 13/13 Q1008 R12/CLRD60 NOSIG RMK QFE714/0952
過去の天気等 Google飛行場航空写真 Wunderground天気予報

過去48時間のMETAR

飛行場予報(TAF)
発表時間: 7/23 01:00 IRKT (7/22 17:00 UTC)
予報対象時間: 23日2時 IRKT ~ 24日2時 IRKT
風向・風速南南東 3m/s
視程300m
天気現象
全天を覆う雲 鉛直視程 30m
23日2時 IRKT ~ 23日10時 IRKT に一時的に
視程2000m
天気現象もや 煙
全天の8割程度の雲 雲底高度 90m
23日10時 IRKT ~ 23日11時 IRKT に徐々に
視程3100m
天気現象
全天の4割程度の雲 雲底高度 460m
TAF UIII 221700Z 2218/2318 15003MPS 0300 FG VV001
TEMPO 2218/2302 2000 BR FU BKN003
BECMG 2302/2303 3100 FU SCT015